createdAt,value
2023-05-24T00:00:43.199Z,9.711680
2023-05-24T00:01:42.823Z,9.711742
2023-05-24T00:02:42.919Z,9.711773
2023-05-24T00:03:42.970Z,9.711820
2023-05-24T00:04:42.800Z,9.711821
2023-05-24T00:05:42.877Z,9.711804
2023-05-24T00:06:42.776Z,9.711840
2023-05-24T00:07:43.600Z,9.711590
2023-05-24T00:08:43.650Z,9.711558
2023-05-24T00:09:42.903Z,9.711790
2023-05-24T00:10:42.936Z,9.711818
2023-05-24T00:11:42.733Z,9.711749
2023-05-24T00:12:42.749Z,9.711814
2023-05-24T00:13:42.847Z,9.712106
2023-05-24T00:14:42.828Z,9.712193
2023-05-24T00:15:43.615Z,9.712208
2023-05-24T00:16:43.595Z,9.712157
2023-05-24T00:17:42.788Z,9.711983
2023-05-24T00:18:42.672Z,9.712082
2023-05-24T00:19:42.662Z,9.712015
2023-05-24T00:24:35.003Z,9.711731
2023-05-24T00:25:34.772Z,9.711645
2023-05-24T00:26:34.770Z,9.711691
2023-05-24T00:27:34.761Z,9.711617
2023-05-24T00:28:34.774Z,9.711588
2023-05-24T00:29:34.741Z,9.711634
2023-05-24T00:30:34.736Z,9.711666
2023-05-24T00:31:34.766Z,9.711716
2023-05-24T00:32:34.781Z,9.711708
2023-05-24T00:33:34.745Z,9.711673
2023-05-24T00:34:34.725Z,9.711639
2023-05-24T00:35:34.713Z,9.711561
2023-05-24T00:36:34.717Z,9.711700
2023-05-24T00:37:34.699Z,9.711727
2023-05-24T00:38:34.718Z,9.711683
2023-05-24T00:39:34.661Z,9.711665
2023-05-24T00:40:34.666Z,9.711638
2023-05-24T00:41:34.653Z,9.711615
2023-05-24T00:42:34.649Z,9.711590
2023-05-24T00:43:34.966Z,9.711608
2023-05-24T00:44:34.640Z,9.711599
2023-05-24T00:45:34.641Z,9.711596
2023-05-24T00:46:34.742Z,9.711592
2023-05-24T00:47:34.646Z,9.711618
2023-05-24T00:48:34.599Z,9.711628
2023-05-24T00:49:34.602Z,9.711596
2023-05-24T00:50:34.588Z,9.711565
2023-05-24T00:51:34.564Z,9.711586
2023-05-24T00:52:34.566Z,9.711612
2023-05-24T00:53:34.561Z,9.711617
2023-05-24T00:54:34.555Z,9.711543
2023-05-24T00:55:34.597Z,9.711574
2023-05-24T00:56:34.555Z,9.711553
2023-05-24T00:57:34.519Z,9.711597
2023-05-24T00:58:34.535Z,9.711552
2023-05-24T00:59:34.508Z,9.711571
2023-05-24T01:00:34.501Z,9.711696
2023-05-24T01:01:34.523Z,9.711666
2023-05-24T01:02:34.539Z,9.711572
2023-05-24T01:03:34.582Z,9.711547
2023-05-24T01:04:34.465Z,9.711551
2023-05-24T01:05:35.445Z,9.711626
2023-05-24T01:06:34.453Z,9.711670
2023-05-24T01:07:34.436Z,9.711563
2023-05-24T01:08:35.319Z,9.711468
2023-05-24T01:09:34.579Z,9.711722
2023-05-24T01:10:34.478Z,9.711701
2023-05-24T01:11:34.472Z,9.711649
2023-05-24T01:12:35.065Z,9.711650
2023-05-24T01:13:36.314Z,9.711419
2023-05-24T01:14:35.349Z,9.711416
2023-05-24T01:15:35.018Z,9.711534
2023-05-24T01:16:35.068Z,9.711517
2023-05-24T01:17:35.386Z,9.711646
2023-05-24T01:18:34.372Z,9.711677
2023-05-24T01:19:34.365Z,9.711708
2023-05-24T01:20:34.625Z,9.711703
2023-05-24T01:21:34.897Z,9.711710
2023-05-24T01:22:34.396Z,9.711583
2023-05-24T01:23:35.319Z,9.711725
2023-05-24T01:24:36.819Z,9.711794
2023-05-24T01:25:34.359Z,9.711756
2023-05-24T01:26:34.335Z,9.711551
2023-05-24T01:27:34.309Z,9.711677
2023-05-24T01:28:34.278Z,9.711669
2023-05-24T01:29:34.270Z,9.711604
2023-05-24T01:30:34.280Z,9.711685
2023-05-24T01:31:34.284Z,9.711696
2023-05-24T01:32:34.310Z,9.711714
2023-05-24T01:33:34.453Z,9.711654
2023-05-24T01:34:34.303Z,9.711600
2023-05-24T01:35:34.235Z,9.711567
2023-05-24T01:36:34.256Z,9.711313
2023-05-24T01:37:34.209Z,9.711633
2023-05-24T01:38:34.223Z,9.711734
2023-05-24T01:39:34.278Z,9.711703
2023-05-24T01:40:34.207Z,9.711825
2023-05-24T01:41:34.201Z,9.711592
2023-05-24T01:42:34.162Z,9.711770
2023-05-24T01:43:34.169Z,9.711809
2023-05-24T01:44:34.252Z,9.711909
2023-05-24T01:45:34.133Z,9.712080
2023-05-24T01:46:34.187Z,9.712086
2023-05-24T01:47:34.135Z,9.711907
2023-05-24T01:48:34.126Z,9.711780
2023-05-24T01:49:34.826Z,9.711894
2023-05-24T01:50:34.161Z,9.711596
2023-05-24T01:51:34.126Z,9.711856
2023-05-24T01:52:34.130Z,9.712138
2023-05-24T01:53:35.835Z,9.712132
2023-05-24T01:54:34.073Z,9.712045
2023-05-24T01:55:34.087Z,9.712112
2023-05-24T01:56:34.077Z,9.712034
2023-05-24T01:57:34.045Z,9.711797
2023-05-24T01:58:34.031Z,9.711758
2023-05-24T01:59:34.033Z,9.711727
2023-05-24T02:00:34.038Z,9.711755
2023-05-24T02:01:34.087Z,9.711730
2023-05-24T02:02:34.066Z,9.711672
2023-05-24T02:03:34.032Z,9.711669
2023-05-24T02:04:34.994Z,9.711697
2023-05-24T02:05:34.910Z,9.711690
2023-05-24T02:06:34.464Z,9.711742
2023-05-24T02:07:34.868Z,9.711760
2023-05-24T02:08:34.920Z,9.711738
2023-05-24T02:09:33.948Z,9.711687
2023-05-24T02:10:33.963Z,9.711741
2023-05-24T02:11:33.934Z,9.711738
2023-05-24T02:12:33.933Z,9.711756
2023-05-24T02:13:33.986Z,9.711694
2023-05-24T02:14:33.906Z,9.711675
2023-05-24T02:15:33.936Z,9.711737
2023-05-24T02:16:33.947Z,9.711700
2023-05-24T02:17:33.959Z,9.711684
2023-05-24T02:18:33.881Z,9.711737
2023-05-24T02:19:33.993Z,9.711753
2023-05-24T02:20:34.086Z,9.711750
2023-05-24T02:21:34.853Z,9.711699
2023-05-24T02:22:33.852Z,9.711612
2023-05-24T02:23:33.874Z,9.711585
2023-05-24T02:24:34.454Z,9.711651
2023-05-24T02:25:34.399Z,9.711649
2023-05-24T02:26:33.832Z,9.711694
2023-05-24T02:27:33.827Z,9.711656
2023-05-24T02:28:34.335Z,9.711723
2023-05-24T02:29:33.814Z,9.711647
2023-05-24T02:30:34.467Z,9.711711
2023-05-24T02:31:33.829Z,9.711685
2023-05-24T02:32:33.794Z,9.711657
2023-05-24T02:33:33.868Z,9.711876
2023-05-24T02:34:33.797Z,9.711827
2023-05-24T02:35:33.756Z,9.711724
2023-05-24T02:36:33.741Z,9.711658
2023-05-24T02:37:33.741Z,9.711698
2023-05-24T02:38:33.726Z,9.712028
2023-05-24T02:39:33.831Z,9.711853
2023-05-24T02:40:33.712Z,9.711860
2023-05-24T02:41:34.446Z,9.711732
2023-05-24T02:42:33.703Z,9.711692
2023-05-24T02:43:34.338Z,9.711804
2023-05-24T02:44:33.688Z,9.712002
2023-05-24T02:45:33.668Z,9.712045
2023-05-24T02:46:33.719Z,9.711941
2023-05-24T02:47:33.719Z,9.711756
2023-05-24T02:48:34.376Z,9.711889
2023-05-24T02:49:33.652Z,9.712113
2023-05-24T02:50:33.627Z,9.712529
2023-05-24T02:51:34.371Z,9.712294
2023-05-24T02:52:33.618Z,9.712084
2023-05-24T02:53:33.634Z,9.711786
2023-05-24T02:54:33.592Z,9.711806
2023-05-24T02:55:33.589Z,9.711901
2023-05-24T02:56:33.587Z,9.711893
2023-05-24T02:57:33.603Z,9.711884
2023-05-24T02:58:33.566Z,9.711946
2023-05-24T02:59:33.584Z,9.711795
2023-05-24T03:00:33.554Z,9.711603
2023-05-24T03:01:33.592Z,9.711513
2023-05-24T03:02:33.653Z,9.711248
2023-05-24T03:03:34.436Z,9.711069
2023-05-24T03:04:33.526Z,9.710849
2023-05-24T03:05:33.551Z,9.711587
2023-05-24T03:06:33.509Z,9.711931
2023-05-24T03:07:33.512Z,9.711618
2023-05-24T03:08:33.503Z,9.711506
2023-05-24T03:09:33.507Z,9.711336
2023-05-24T03:10:33.479Z,9.711484
2023-05-24T03:11:33.484Z,9.711505
2023-05-24T03:12:33.453Z,9.711520
2023-05-24T03:13:34.584Z,9.711528
2023-05-24T03:14:33.449Z,9.711721
2023-05-24T03:15:33.450Z,9.711950
2023-05-24T03:16:33.470Z,9.712014
2023-05-24T03:17:33.467Z,9.711878
2023-05-24T03:18:35.914Z,9.711940
2023-05-24T03:19:33.488Z,9.712090
2023-05-24T03:20:33.571Z,9.712122
2023-05-24T03:21:33.402Z,9.711990
2023-05-24T03:22:33.366Z,9.711720
2023-05-24T03:23:33.361Z,9.711599
2023-05-24T03:24:33.350Z,9.711619
2023-05-24T03:25:33.385Z,9.711611
2023-05-24T03:26:33.386Z,9.711608
2023-05-24T03:27:33.331Z,9.711597
2023-05-24T03:28:33.327Z,9.711590
2023-05-24T03:29:33.325Z,9.711555
2023-05-24T03:30:33.430Z,9.711587
2023-05-24T03:31:33.373Z,9.711636
2023-05-24T03:32:33.457Z,9.711620
2023-05-24T03:33:33.302Z,9.711640
2023-05-24T03:34:33.281Z,9.711591
2023-05-24T03:35:33.266Z,9.711591
2023-05-24T03:36:33.889Z,9.711606
2023-05-24T03:37:33.260Z,9.711599
2023-05-24T03:38:33.241Z,9.711606
2023-05-24T03:39:34.076Z,9.711575
2023-05-24T03:40:33.241Z,9.711650
2023-05-24T03:41:33.237Z,9.711636
2023-05-24T03:42:33.257Z,9.711626
2023-05-24T03:43:33.233Z,9.711578
2023-05-24T03:44:33.240Z,9.711509
2023-05-24T03:45:39.029Z,9.711635
2023-05-24T03:46:35.301Z,9.711600
2023-05-24T03:47:33.222Z,9.711456
2023-05-24T03:48:33.170Z,9.711420
2023-05-24T03:49:34.174Z,9.711394
2023-05-24T03:50:33.154Z,9.711432
2023-05-24T03:51:33.148Z,9.711439
2023-05-24T03:52:33.889Z,9.711475
2023-05-24T03:53:33.131Z,9.711501
2023-05-24T03:54:34.122Z,9.711537
2023-05-24T03:55:33.129Z,9.711593
2023-05-24T03:56:33.122Z,9.711575
2023-05-24T03:57:33.109Z,9.711650
2023-05-24T03:58:33.124Z,9.711667
2023-05-24T03:59:33.087Z,9.711547
2023-05-24T04:00:33.144Z,9.711528
2023-05-24T04:01:34.426Z,9.711822
2023-05-24T04:02:34.162Z,9.711513
2023-05-24T04:03:33.116Z,9.711662
2023-05-24T04:04:33.052Z,9.711667
2023-05-24T04:05:33.075Z,9.711609
2023-05-24T04:06:33.072Z,9.711651
2023-05-24T04:07:33.018Z,9.711645
2023-05-24T04:08:33.002Z,9.711635
2023-05-24T04:09:32.992Z,9.711587
2023-05-24T04:10:33.073Z,9.711512
2023-05-24T04:11:32.986Z,9.711447
2023-05-24T04:12:32.984Z,9.711547
2023-05-24T04:13:32.969Z,9.711582
2023-05-24T04:14:32.965Z,9.711638
2023-05-24T04:15:32.959Z,9.711679
2023-05-24T04:16:33.926Z,9.711679
2023-05-24T04:17:33.040Z,9.711614
2023-05-24T04:18:33.074Z,9.711613
2023-05-24T04:19:32.922Z,9.711641
2023-05-24T04:20:33.003Z,9.711619
2023-05-24T04:21:32.918Z,9.711628
2023-05-24T04:22:34.882Z,9.711619
2023-05-24T04:23:39.469Z,9.711569
2023-05-24T04:24:32.905Z,9.711542
2023-05-24T04:25:32.887Z,9.711329
2023-05-24T04:26:32.876Z,9.711143
2023-05-24T04:27:32.855Z,9.711092
2023-05-24T04:28:32.853Z,9.711401
2023-05-24T04:29:32.844Z,9.711505
2023-05-24T04:30:32.869Z,9.711761
2023-05-24T04:31:33.547Z,9.711970
2023-05-24T04:32:32.913Z,9.711809
2023-05-24T04:33:32.836Z,9.711864
2023-05-24T04:34:32.798Z,9.711905
2023-05-24T04:35:32.816Z,9.712049
2023-05-24T04:36:33.410Z,9.711934
2023-05-24T04:37:32.788Z,9.711751
2023-05-24T04:38:32.772Z,9.712020
2023-05-24T04:39:33.525Z,9.711810
2023-05-24T04:40:33.504Z,9.711743
2023-05-24T04:41:32.758Z,9.711794
2023-05-24T04:42:34.402Z,9.711725
2023-05-24T04:43:32.726Z,9.711707
2023-05-24T04:44:32.735Z,9.711662
2023-05-24T04:45:32.749Z,9.711699
2023-05-24T04:46:32.761Z,9.711756
2023-05-24T04:47:32.774Z,9.711748
2023-05-24T04:48:32.695Z,9.711689
2023-05-24T04:49:32.689Z,9.711643
2023-05-24T04:50:32.712Z,9.711631
2023-05-24T04:51:32.698Z,9.711646
2023-05-24T04:52:32.670Z,9.711637
2023-05-24T04:53:32.773Z,9.711580
2023-05-24T04:54:33.482Z,9.711600
2023-05-24T04:55:32.712Z,9.711681
2023-05-24T04:56:32.770Z,9.711664
2023-05-24T04:57:32.659Z,9.711703
2023-05-24T04:58:32.636Z,9.711634
2023-05-24T04:59:32.631Z,9.711718
2023-05-24T05:00:32.594Z,9.711740
2023-05-24T05:01:32.629Z,9.711772
2023-05-24T05:02:34.441Z,9.711702
2023-05-24T05:03:33.534Z,9.711722
2023-05-24T05:04:32.825Z,9.711717
2023-05-24T05:05:32.585Z,9.711720
2023-05-24T05:06:32.601Z,9.711723
2023-05-24T05:07:33.554Z,9.711675
2023-05-24T05:08:32.630Z,9.711786
2023-05-24T05:09:32.552Z,9.711731
2023-05-24T05:10:32.572Z,9.711688
2023-05-24T05:11:32.579Z,9.711683
2023-05-24T05:12:32.510Z,9.711675
2023-05-24T05:13:32.527Z,9.711717
2023-05-24T05:14:32.522Z,9.711644
2023-05-24T05:15:32.538Z,9.711815
2023-05-24T05:16:32.530Z,9.711804
2023-05-24T05:17:32.514Z,9.711723
2023-05-24T05:18:32.452Z,9.711750
2023-05-24T05:19:32.983Z,9.711711
2023-05-24T05:20:32.483Z,9.711783
2023-05-24T05:21:32.453Z,9.711716
2023-05-24T05:22:32.992Z,9.711812
2023-05-24T05:23:32.449Z,9.711917
2023-05-24T05:24:32.413Z,9.711824
2023-05-24T05:25:32.432Z,9.711731
2023-05-24T05:26:32.507Z,9.711782
2023-05-24T05:27:33.973Z,9.711981
2023-05-24T05:28:33.389Z,9.711951
2023-05-24T05:29:32.392Z,9.711870
2023-05-24T05:30:32.391Z,9.711767
2023-05-24T05:31:32.462Z,9.711765
2023-05-24T05:32:33.110Z,9.711782
2023-05-24T05:33:32.422Z,9.711761
2023-05-24T05:34:33.928Z,9.711655
2023-05-24T05:35:32.343Z,9.711802
2023-05-24T05:36:32.366Z,9.711733
2023-05-24T05:37:33.918Z,9.711766
2023-05-24T05:38:32.305Z,9.711761
2023-05-24T05:39:34.004Z,9.711757
2023-05-24T05:40:32.292Z,9.711807
2023-05-24T05:41:32.283Z,9.711806
2023-05-24T05:42:32.350Z,9.711843
2023-05-24T05:43:32.317Z,9.711769
2023-05-24T05:44:32.252Z,9.711768
2023-05-24T05:45:32.268Z,9.711954
2023-05-24T05:46:32.338Z,9.711919
2023-05-24T05:47:32.237Z,9.711718
2023-05-24T05:48:32.248Z,9.711832
2023-05-24T05:49:32.215Z,9.711992
2023-05-24T05:50:32.232Z,9.712120
2023-05-24T05:51:32.196Z,9.712228
2023-05-24T05:52:32.209Z,9.712141
2023-05-24T05:53:34.061Z,9.711738
2023-05-24T05:54:32.185Z,9.711601
2023-05-24T05:55:33.254Z,9.711619
2023-05-24T05:56:32.266Z,9.711683
2023-05-24T05:57:33.014Z,9.711844
2023-05-24T05:58:32.185Z,9.712157
2023-05-24T05:59:32.145Z,9.712168
2023-05-24T06:00:32.154Z,9.712091
2023-05-24T06:01:34.036Z,9.711884
2023-05-24T06:02:32.213Z,9.711781
2023-05-24T06:03:33.209Z,9.711436
2023-05-24T06:04:32.142Z,9.711552
2023-05-24T06:05:32.092Z,9.710733
2023-05-24T06:06:32.093Z,9.710534
2023-05-24T06:07:32.117Z,9.710659
2023-05-24T06:08:32.091Z,9.710795
2023-05-24T06:09:32.061Z,9.710883
2023-05-24T06:10:32.070Z,9.711599
2023-05-24T06:11:32.037Z,9.712013
2023-05-24T06:12:32.032Z,9.712155
2023-05-24T06:13:32.034Z,9.712044
2023-05-24T06:14:33.006Z,9.711909
2023-05-24T06:15:33.051Z,9.711534
2023-05-24T06:16:32.081Z,9.711657
2023-05-24T06:17:33.882Z,9.711845
2023-05-24T06:18:32.217Z,9.711761
2023-05-24T06:19:35.518Z,9.711761
2023-05-24T06:21:05.448Z,9.711678
2023-05-24T06:21:32.952Z,9.711623
2023-05-24T06:22:31.948Z,9.711690
2023-05-24T06:23:31.949Z,9.711741
2023-05-24T06:24:31.940Z,9.711707
2023-05-24T06:25:31.939Z,9.711657
2023-05-24T06:30:40.708Z,9.711830
2023-05-24T06:31:40.332Z,9.711926
2023-05-24T06:32:40.378Z,9.711798
2023-05-24T06:33:42.677Z,9.711794
2023-05-24T06:34:42.273Z,9.711718
2023-05-24T06:35:39.687Z,9.711765
2023-05-24T06:36:39.925Z,9.711850
2023-05-24T06:37:39.646Z,9.711775
2023-05-24T06:38:40.295Z,9.711703
2023-05-24T06:44:47.587Z,9.711815
2023-05-24T06:45:47.587Z,9.711726
2023-05-24T06:46:47.589Z,9.711765
2023-05-24T06:47:47.656Z,9.711740
2023-05-24T06:48:47.697Z,9.711742
2023-05-24T06:55:57.910Z,9.712113
2023-05-24T06:56:57.916Z,9.711715
2023-05-24T06:57:57.873Z,9.712021
2023-05-24T06:59:00.765Z,9.711735
2023-05-24T06:59:57.871Z,9.711802
2023-05-24T07:00:59.656Z,9.711753
2023-05-24T07:01:59.943Z,9.711810
2023-05-24T07:02:57.922Z,9.711699
2023-05-24T07:03:58.825Z,9.711759
2023-05-24T07:04:57.901Z,9.711801
2023-05-24T07:05:57.815Z,9.711961
2023-05-24T07:06:57.827Z,9.711836
2023-05-24T07:07:57.832Z,9.711635
2023-05-24T07:08:57.792Z,9.711601
2023-05-24T07:09:57.784Z,9.711637
2023-05-24T07:10:58.727Z,9.711692
2023-05-24T07:11:59.619Z,9.711518
2023-05-24T07:12:57.761Z,9.711514
2023-05-24T07:17:05.824Z,9.712164
2023-05-24T07:18:05.786Z,9.712049
2023-05-24T07:19:05.724Z,9.712146
2023-05-24T07:20:05.766Z,9.712191
2023-05-24T07:21:06.041Z,9.712014
2023-05-24T07:22:07.522Z,9.711850
2023-05-24T07:23:05.779Z,9.711823
2023-05-24T07:24:07.594Z,9.711693
2023-05-24T07:25:05.691Z,9.711903
2023-05-24T07:26:05.668Z,9.711929
2023-05-24T07:27:05.651Z,9.711985
2023-05-24T07:28:07.613Z,9.711886
2023-05-24T07:29:08.528Z,9.711663
2023-05-24T07:30:06.625Z,9.711594
2023-05-24T07:31:05.809Z,9.711538
2023-05-24T07:32:05.684Z,9.711800
2023-05-24T07:33:05.657Z,9.711876
2023-05-24T07:38:14.723Z,9.711906
2023-05-24T07:39:15.297Z,9.711884
2023-05-24T07:40:14.690Z,9.711884
2023-05-24T07:41:14.703Z,9.711884
2023-05-24T07:42:16.407Z,9.711884
2023-05-24T07:43:14.667Z,9.711797
2023-05-24T07:44:16.307Z,9.711797
2023-05-24T07:45:14.692Z,9.711764
2023-05-24T07:46:14.775Z,9.711797
2023-05-24T07:47:14.673Z,9.711875
2023-05-24T07:48:14.705Z,9.711798
2023-05-24T07:49:17.386Z,9.711667
2023-05-24T07:50:14.626Z,9.711444
2023-05-24T07:51:15.616Z,9.711290
2023-05-24T07:52:18.382Z,9.711314
2023-05-24T07:53:14.612Z,9.711350
2023-05-24T07:54:14.588Z,9.711184
2023-05-24T07:55:14.588Z,9.711424
2023-05-24T07:56:14.569Z,9.711362
2023-05-24T07:57:14.566Z,9.711279
2023-05-24T07:58:14.573Z,9.711340
2023-05-24T07:59:14.560Z,9.711335
2023-05-24T08:00:15.089Z,9.711370
2023-05-24T08:01:14.561Z,9.711123
2023-05-24T08:02:14.533Z,9.711408
2023-05-24T08:03:14.756Z,9.711453
2023-05-24T08:04:14.525Z,9.711321
2023-05-24T08:05:14.511Z,9.711299
2023-05-24T08:06:14.477Z,9.711455
2023-05-24T08:07:15.521Z,9.711386
2023-05-24T08:08:14.498Z,9.711444
2023-05-24T08:09:14.488Z,9.711522
2023-05-24T08:10:14.509Z,9.711640
2023-05-24T08:11:14.465Z,9.711551
2023-05-24T08:12:16.947Z,9.711525
2023-05-24T08:13:15.443Z,9.711532
2023-05-24T08:14:14.436Z,9.711637
2023-05-24T08:15:14.439Z,9.711622
2023-05-24T08:16:14.432Z,9.711761
2023-05-24T08:17:17.552Z,9.711803
2023-05-24T08:18:15.480Z,9.711674
2023-05-24T08:19:14.385Z,9.711685
2023-05-24T08:20:14.494Z,9.711685
2023-05-24T08:21:14.842Z,9.711660
2023-05-24T08:25:21.737Z,9.711583
2023-05-24T08:26:21.719Z,9.711590
2023-05-24T08:27:21.710Z,9.711598
2023-05-24T08:28:21.750Z,9.711608
2023-05-24T08:29:22.594Z,9.711590
2023-05-24T08:30:21.690Z,9.711594
2023-05-24T08:31:21.742Z,9.711581
2023-05-24T08:32:21.744Z,9.711585
2023-05-24T08:33:21.684Z,9.711602
2023-05-24T08:34:21.692Z,9.711601
2023-05-24T08:35:22.276Z,9.711633
2023-05-24T08:36:21.665Z,9.711590
2023-05-24T08:37:21.646Z,9.711603
2023-05-24T08:38:21.636Z,9.711702
2023-05-24T08:39:22.587Z,9.711724
2023-05-24T08:40:23.560Z,9.711720
2023-05-24T08:41:22.521Z,9.711730
2023-05-24T08:42:22.088Z,9.712009
2023-05-24T08:43:21.592Z,9.712006
2023-05-24T08:44:21.573Z,9.711972
2023-05-24T08:45:21.557Z,9.711943
2023-05-24T08:46:21.736Z,9.711800
2023-05-24T08:47:22.538Z,9.711727
2023-05-24T08:48:21.675Z,9.711808
2023-05-24T08:49:21.542Z,9.711725
2023-05-24T08:50:21.538Z,9.711707
2023-05-24T08:51:21.542Z,9.711680
2023-05-24T08:52:22.465Z,9.711682
2023-05-24T08:53:23.119Z,9.711717
2023-05-24T08:54:22.009Z,9.711688
2023-05-24T08:55:21.508Z,9.711719
2023-05-24T08:56:21.508Z,9.711722
2023-05-24T08:57:23.093Z,9.711672
2023-05-24T08:58:22.477Z,9.711764
2023-05-24T08:59:24.085Z,9.711697
2023-05-24T09:00:21.479Z,9.711729
2023-05-24T09:01:21.553Z,9.711658
2023-05-24T09:02:21.444Z,9.711633
2023-05-24T09:03:23.087Z,9.711703
2023-05-24T09:04:23.194Z,9.711736
2023-05-24T09:05:21.408Z,9.711684
2023-05-24T09:06:21.421Z,9.711599
2023-05-24T09:07:21.422Z,9.711615
2023-05-24T09:08:21.426Z,9.711733
2023-05-24T09:09:22.033Z,9.711587
2023-05-24T09:10:24.023Z,9.711659
2023-05-24T09:11:23.096Z,9.711732
2023-05-24T09:12:35.728Z,9.711716
2023-05-24T09:13:23.361Z,9.711688
2023-05-24T09:14:21.975Z,9.711721
2023-05-24T09:15:21.347Z,9.711769
2023-05-24T09:16:21.361Z,9.711683
2023-05-24T09:17:21.336Z,9.711707
2023-05-24T09:18:21.443Z,9.711656
2023-05-24T09:19:21.358Z,9.711679
2023-05-24T09:20:21.317Z,9.711794
2023-05-24T09:21:22.100Z,9.711777
2023-05-24T09:22:21.371Z,9.711671
2023-05-24T09:23:21.291Z,9.711630
2023-05-24T09:24:21.300Z,9.711661
2023-05-24T09:25:21.262Z,9.711710
2023-05-24T09:26:23.021Z,9.711704
2023-05-24T09:27:21.273Z,9.711758
2023-05-24T09:28:22.108Z,9.711705
2023-05-24T09:29:22.016Z,9.711641
2023-05-24T09:30:21.358Z,9.711595
2023-05-24T09:31:21.273Z,9.711695
2023-05-24T09:32:22.058Z,9.711612
2023-05-24T09:33:21.206Z,9.711789
2023-05-24T09:34:21.207Z,9.711653
2023-05-24T09:35:23.536Z,9.711535
2023-05-24T09:36:22.072Z,9.711709
2023-05-24T09:37:27.388Z,9.711665
2023-05-24T09:38:23.187Z,9.711789
2023-05-24T09:39:23.055Z,9.711638
2023-05-24T09:40:22.052Z,9.712005
2023-05-24T09:41:22.115Z,9.711931
2023-05-24T09:42:22.178Z,9.712167
2023-05-24T09:43:21.365Z,9.712052
2023-05-24T09:44:22.121Z,9.711938
2023-05-24T09:45:21.109Z,9.712114
2023-05-24T09:46:21.137Z,9.712132
2023-05-24T09:47:22.231Z,9.711777
2023-05-24T09:48:22.049Z,9.711761
2023-05-24T09:49:22.040Z,9.711843
2023-05-24T09:58:35.862Z,9.712544
2023-05-24T09:59:34.356Z,9.712634
2023-05-24T10:00:32.208Z,9.712941
2023-05-24T10:01:34.892Z,9.712941
2023-05-24T10:02:38.483Z,9.712941
2023-05-24T10:03:33.220Z,9.712941
2023-05-24T10:04:31.868Z,9.712941
2023-05-24T10:05:31.957Z,9.712941
2023-05-24T10:06:32.987Z,9.712941
2023-05-24T10:07:31.116Z,9.710591
2023-05-24T10:08:32.000Z,9.710591
2023-05-24T10:09:31.139Z,9.710591
2023-05-24T10:10:31.134Z,9.711649
2023-05-24T10:11:31.104Z,9.712426
2023-05-24T10:12:31.075Z,9.712712
2023-05-24T10:13:34.819Z,9.712712
2023-05-24T10:14:36.838Z,9.712135
2023-05-24T21:26:43.480Z,9.711664
2023-05-24T21:27:43.352Z,9.711688
2023-05-24T21:28:43.341Z,9.711584
2023-05-24T21:29:44.313Z,9.711641
2023-05-24T21:30:43.376Z,9.711649
2023-05-24T21:31:43.429Z,9.711670
2023-05-24T21:32:43.346Z,9.711656
2023-05-24T21:33:43.311Z,9.711648
2023-05-24T21:34:43.300Z,9.711660
2023-05-24T21:35:43.566Z,9.711609
2023-05-24T21:36:43.282Z,9.711688
2023-05-24T21:37:43.264Z,9.711692
2023-05-24T21:38:43.268Z,9.711617
2023-05-24T21:39:43.265Z,9.711838
2023-05-24T21:40:43.269Z,9.711997
2023-05-24T21:41:43.265Z,9.711909
2023-05-24T21:42:43.226Z,9.711730
2023-05-24T21:43:43.250Z,9.711719
2023-05-24T21:44:43.247Z,9.711913
2023-05-24T21:45:43.514Z,9.712107
2023-05-24T21:46:43.278Z,9.712103
2023-05-24T21:47:43.209Z,9.712105
2023-05-24T21:48:43.184Z,9.711935
2023-05-24T21:49:43.178Z,9.711685
2023-05-24T21:50:43.181Z,9.711814
2023-05-24T21:51:43.166Z,9.711901
2023-05-24T21:52:43.162Z,9.712078
2023-05-24T21:53:43.140Z,9.711979
2023-05-24T21:54:43.142Z,9.711914
2023-05-24T21:55:43.258Z,9.711926
2023-05-24T21:56:43.148Z,9.711820
2023-05-24T21:57:43.166Z,9.711798
2023-05-24T21:58:43.902Z,9.711691
2023-05-24T21:59:43.893Z,9.711738
2023-05-24T22:00:43.081Z,9.712148
2023-05-24T22:01:43.104Z,9.711954
2023-05-24T22:02:43.170Z,9.711925
2023-05-24T22:03:43.154Z,9.711353
2023-05-24T22:04:43.069Z,9.711621
2023-05-24T22:05:43.179Z,9.711686
2023-05-24T22:06:43.049Z,9.711741
2023-05-24T22:07:43.039Z,9.712051
2023-05-24T22:08:43.048Z,9.711908
2023-05-24T22:09:43.011Z,9.711778
2023-05-24T22:10:43.004Z,9.711889
2023-05-24T22:11:43.035Z,9.711873
2023-05-24T22:12:43.014Z,9.711916
2023-05-24T22:13:43.019Z,9.711930
2023-05-24T22:14:42.991Z,9.712135
2023-05-24T22:15:43.162Z,9.711908
2023-05-24T22:16:43.050Z,9.712083
2023-05-24T22:17:43.919Z,9.712019
2023-05-24T22:18:42.995Z,9.712002
2023-05-24T22:19:42.976Z,9.712191
2023-05-24T22:20:42.978Z,9.711946
2023-05-24T22:26:50.775Z,9.711536
2023-05-24T22:27:50.797Z,9.711423
2023-05-24T22:28:50.795Z,9.711604
2023-05-24T22:29:50.774Z,9.711404
2023-05-24T22:30:50.781Z,9.711592
2023-05-24T22:31:50.827Z,9.711492
2023-05-24T22:32:50.754Z,9.711333
2023-05-24T22:33:50.731Z,9.711404
2023-05-24T22:34:50.726Z,9.711535
2023-05-24T22:35:50.711Z,9.711688
2023-05-24T22:36:50.719Z,9.711238
2023-05-24T22:37:50.696Z,9.711591
2023-05-24T22:38:50.696Z,9.711359
2023-05-24T22:39:50.689Z,9.711766
2023-05-24T22:40:50.687Z,9.711858
2023-05-24T22:41:50.698Z,9.711659
2023-05-24T22:42:50.654Z,9.711687
2023-05-24T22:43:50.665Z,9.711587
2023-05-24T22:44:50.660Z,9.711687
2023-05-24T22:45:50.698Z,9.711597
2023-05-24T22:46:50.704Z,9.711529
2023-05-24T22:47:50.650Z,9.711549
2023-05-24T22:48:50.619Z,9.712002
2023-05-24T22:49:50.608Z,9.711831
2023-05-24T22:50:50.626Z,9.711481
2023-05-24T22:51:50.664Z,9.710973
2023-05-24T22:52:50.587Z,9.711483
2023-05-24T22:53:50.590Z,9.711479
2023-05-24T22:54:50.579Z,9.711539
2023-05-24T22:55:50.568Z,9.711470
2023-05-24T22:56:50.572Z,9.711369
2023-05-24T22:57:50.547Z,9.711362
2023-05-24T22:58:50.526Z,9.711416
2023-05-24T22:59:50.533Z,9.711470
2023-05-24T23:00:50.506Z,9.711700
2023-05-24T23:01:50.638Z,9.711747
2023-05-24T23:02:50.579Z,9.711918
2023-05-24T23:03:50.567Z,9.712112
2023-05-24T23:04:50.490Z,9.712202
2023-05-24T23:05:50.504Z,9.712263
2023-05-24T23:06:50.465Z,9.711958
2023-05-24T23:07:50.476Z,9.711831
2023-05-24T23:08:50.460Z,9.711823
2023-05-24T23:09:51.181Z,9.711829
2023-05-24T23:10:50.470Z,9.711881
2023-05-24T23:11:50.452Z,9.711908
2023-05-24T23:12:50.429Z,9.711968
2023-05-24T23:13:50.422Z,9.711963
2023-05-24T23:14:50.421Z,9.711962
2023-05-24T23:15:50.422Z,9.711922
2023-05-24T23:16:50.430Z,9.711838
2023-05-24T23:17:50.442Z,9.711884
2023-05-24T23:18:50.378Z,9.711746
2023-05-24T23:19:50.622Z,9.711725
2023-05-24T23:20:50.401Z,9.711687
2023-05-24T23:21:50.372Z,9.711661
2023-05-24T23:22:50.355Z,9.711708
2023-05-24T23:23:50.352Z,9.711751
2023-05-24T23:24:50.334Z,9.711728
2023-05-24T23:25:50.326Z,9.711739
2023-05-24T23:26:50.309Z,9.711749
2023-05-24T23:27:50.427Z,9.711692
2023-05-24T23:28:50.348Z,9.711677
2023-05-24T23:29:50.292Z,9.711613
2023-05-24T23:30:50.352Z,9.711633
2023-05-24T23:31:50.481Z,9.711650
2023-05-24T23:32:50.321Z,9.711648
2023-05-24T23:33:50.279Z,9.711617
2023-05-24T23:34:50.266Z,9.711640
2023-05-24T23:35:50.240Z,9.711635
2023-05-24T23:36:51.114Z,9.711667
2023-05-24T23:37:50.265Z,9.711549
2023-05-24T23:38:50.225Z,9.711632